sensor_id;sensor_type;location;lat;lon;timestamp;pressure;altitude;pressure_sealevel;temperature;humidity
39729;BME280;25402;42.004;23.088;2024-03-07T00:00:57;97251.84;;;6.57;52.57
39729;BME280;25402;42.004;23.088;2024-03-07T00:03:25;97253.00;;;6.63;52.69
39729;BME280;25402;42.004;23.088;2024-03-07T00:05:53;97234.69;;;6.67;52.14
39729;BME280;25402;42.004;23.088;2024-03-07T00:08:20;97250.31;;;6.79;52.07
39729;BME280;25402;42.004;23.088;2024-03-07T00:10:48;97258.41;;;6.87;52.14
39729;BME280;25402;42.004;23.088;2024-03-07T00:13:15;97269.16;;;6.87;52.28
39729;BME280;25402;42.004;23.088;2024-03-07T00:15:42;97269.66;;;6.83;52.49
39729;BME280;25402;42.004;23.088;2024-03-07T00:18:09;97259.06;;;6.73;52.20
39729;BME280;25402;42.004;23.088;2024-03-07T00:20:36;97267.13;;;6.73;52.15
39729;BME280;25402;42.004;23.088;2024-03-07T00:23:03;97248.31;;;6.65;52.50
39729;BME280;25402;42.004;23.088;2024-03-07T00:25:31;97259.06;;;6.73;52.55
39729;BME280;25402;42.004;23.088;2024-03-07T00:28:00;97253.03;;;6.71;52.28
39729;BME280;25402;42.004;23.088;2024-03-07T00:30:29;97246.97;;;6.61;52.38
39729;BME280;25402;42.004;23.088;2024-03-07T00:32:57;97247.13;;;6.51;52.55
39729;BME280;25402;42.004;23.088;2024-03-07T00:35:24;97243.94;;;6.40;53.04
39729;BME280;25402;42.004;23.088;2024-03-07T00:37:51;97253.00;;;6.31;53.24
39729;BME280;25402;42.004;23.088;2024-03-07T00:40:18;97246.31;;;6.43;53.02
39729;BME280;25402;42.004;23.088;2024-03-07T00:42:46;97241.25;;;6.48;53.10
39729;BME280;25402;42.004;23.088;2024-03-07T00:45:15;97242.09;;;6.56;52.97
39729;BME280;25402;42.004;23.088;2024-03-07T00:47:42;97245.31;;;6.60;52.84
39729;BME280;25402;42.004;23.088;2024-03-07T00:50:09;97252.34;;;6.61;52.88
39729;BME280;25402;42.004;23.088;2024-03-07T00:52:37;97252.84;;;6.65;52.82
39729;BME280;25402;42.004;23.088;2024-03-07T00:55:05;97251.69;;;6.59;53.09
39729;BME280;25402;42.004;23.088;2024-03-07T00:57:34;97230.53;;;6.56;52.77
39729;BME280;25402;42.004;23.088;2024-03-07T01:00:01;97222.47;;;6.56;52.89
39729;BME280;25402;42.004;23.088;2024-03-07T01:02:30;97237.91;;;6.70;53.01
39729;BME280;25402;42.004;23.088;2024-03-07T01:04:57;97222.59;;;6.63;52.81
39729;BME280;25402;42.004;23.088;2024-03-07T01:07:24;97240.56;;;6.78;52.89
39729;BME280;25402;42.004;23.088;2024-03-07T01:09:53;97234.84;;;6.81;52.57
39729;BME280;25402;42.004;23.088;2024-03-07T01:12:20;97235.03;;;6.80;52.69
39729;BME280;25402;42.004;23.088;2024-03-07T01:14:49;97241.25;;;6.80;52.86
39729;BME280;25402;42.004;23.088;2024-03-07T01:17:16;97235.03;;;6.80;52.61
39729;BME280;25402;42.004;23.088;2024-03-07T01:19:45;97233.69;;;6.84;52.69
39729;BME280;25402;42.004;23.088;2024-03-07T01:22:12;97221.91;;;6.85;52.32
39729;BME280;25402;42.004;23.088;2024-03-07T01:24:39;97233.50;;;6.93;52.08
39729;BME280;25402;42.004;23.088;2024-03-07T01:27:06;97231.50;;;6.87;52.02
39729;BME280;25402;42.004;23.088;2024-03-07T01:29:33;97231.84;;;6.84;51.99
39729;BME280;25402;42.004;23.088;2024-03-07T01:32:01;97231.50;;;6.87;52.03
39729;BME280;25402;42.004;23.088;2024-03-07T01:34:28;97227.63;;;6.90;52.12
39729;BME280;25402;42.004;23.088;2024-03-07T01:36:57;97224.94;;;6.90;52.28
39729;BME280;25402;42.004;23.088;2024-03-07T01:39:24;97234.16;;;6.95;52.22
39729;BME280;25402;42.004;23.088;2024-03-07T01:41:51;97232.00;;;6.91;52.07
39729;BME280;25402;42.004;23.088;2024-03-07T01:44:18;97244.63;;;6.90;52.22
39729;BME280;25402;42.004;23.088;2024-03-07T01:46:45;97219.06;;;6.78;52.64
39729;BME280;25402;42.004;23.088;2024-03-07T01:49:12;97230.50;;;6.72;52.27
39729;BME280;25402;42.004;23.088;2024-03-07T01:51:39;97227.31;;;6.69;52.27
39729;BME280;25402;42.004;23.088;2024-03-07T01:54:08;97254.00;;;6.78;52.51
39729;BME280;25402;42.004;23.088;2024-03-07T01:56:37;97256.19;;;6.83;52.71
39729;BME280;25402;42.004;23.088;2024-03-07T01:59:06;97253.69;;;6.81;52.71
39729;BME280;25402;42.004;23.088;2024-03-07T02:01:34;97249.16;;;6.74;52.63
39729;BME280;25402;42.004;23.088;2024-03-07T02:04:02;97251.34;;;6.70;52.25
39729;BME280;25402;42.004;23.088;2024-03-07T02:06:30;97246.63;;;6.72;51.88
39729;BME280;25402;42.004;23.088;2024-03-07T02:08:57;97245.63;;;6.41;51.84
39729;BME280;25402;42.004;23.088;2024-03-07T02:11:25;97259.59;;;6.61;51.57
39729;BME280;25402;42.004;23.088;2024-03-07T02:13:52;97255.03;;;6.53;51.93
39729;BME280;25402;42.004;23.088;2024-03-07T02:16:19;97264.94;;;6.36;51.91
39729;BME280;25402;42.004;23.088;2024-03-07T02:18:47;97268.13;;;6.40;51.55
39729;BME280;25402;42.004;23.088;2024-03-07T02:21:16;97262.75;;;6.48;51.60
39729;BME280;25402;42.004;23.088;2024-03-07T02:23:44;97268.13;;;6.48;51.52
39729;BME280;25402;42.004;23.088;2024-03-07T02:26:11;97265.22;;;6.17;52.20
39729;BME280;25402;42.004;23.088;2024-03-07T02:28:38;97266.94;;;5.76;53.33
39729;BME280;25402;42.004;23.088;2024-03-07T02:31:05;97273.00;;;5.78;53.00
39729;BME280;25402;42.004;23.088;2024-03-07T02:33:32;97268.75;;;6.17;52.31
39729;BME280;25402;42.004;23.088;2024-03-07T02:35:59;97271.47;;;6.34;52.16
39729;BME280;25402;42.004;23.088;2024-03-07T02:38:27;97271.81;;;6.39;52.27
39729;BME280;25402;42.004;23.088;2024-03-07T02:40:55;97277.72;;;6.50;52.24
39729;BME280;25402;42.004;23.088;2024-03-07T02:43:24;97267.78;;;6.51;52.37
39729;BME280;25402;42.004;23.088;2024-03-07T02:45:51;97283.25;;;6.65;52.18
39729;BME280;25402;42.004;23.088;2024-03-07T02:48:18;97277.53;;;6.68;52.25
39729;BME280;25402;42.004;23.088;2024-03-07T02:50:45;97282.09;;;6.76;52.21
39729;BME280;25402;42.004;23.088;2024-03-07T02:53:13;97274.19;;;6.74;52.28
39729;BME280;25402;42.004;23.088;2024-03-07T02:55:41;97269.84;;;6.73;52.44
39729;BME280;25402;42.004;23.088;2024-03-07T02:58:08;97280.59;;;6.73;52.63
39729;BME280;25402;42.004;23.088;2024-03-07T03:00:35;97258.72;;;6.68;52.59
39729;BME280;25402;42.004;23.088;2024-03-07T03:03:03;97268.47;;;6.85;52.31
39729;BME280;25402;42.004;23.088;2024-03-07T03:05:30;97238.75;;;6.71;52.28
39729;BME280;25402;42.004;23.088;2024-03-07T03:07:57;97215.91;;;6.58;52.17
39729;BME280;25402;42.004;23.088;2024-03-07T03:10:26;97248.63;;;6.94;52.06
39729;BME280;25402;42.004;23.088;2024-03-07T03:12:56;97255.34;;;6.99;52.04
39729;BME280;25402;42.004;23.088;2024-03-07T03:15:25;97251.66;;;7.00;51.84
39729;BME280;25402;42.004;23.088;2024-03-07T03:17:52;97234.16;;;6.95;51.78
39729;BME280;25402;42.004;23.088;2024-03-07T03:20:19;97223.56;;;6.94;51.67
39729;BME280;25402;42.004;23.088;2024-03-07T03:22:52;97229.97;;;7.01;51.67
39729;BME280;25402;42.004;23.088;2024-03-07T03:25:19;97229.31;;;7.07;51.46
39729;BME280;25402;42.004;23.088;2024-03-07T03:27:48;97227.47;;;7.08;51.49
39729;BME280;25402;42.004;23.088;2024-03-07T03:30:17;97237.88;;;7.11;51.33
39729;BME280;25402;42.004;23.088;2024-03-07T03:32:45;97239.88;;;7.09;51.16
39729;BME280;25402;42.004;23.088;2024-03-07T03:35:13;97239.38;;;7.13;50.94
39729;BME280;25402;42.004;23.088;2024-03-07T03:37:41;97229.13;;;7.09;51.19
39729;BME280;25402;42.004;23.088;2024-03-07T03:40:09;97219.03;;;7.03;51.20
39729;BME280;25402;42.004;23.088;2024-03-07T03:42:39;97211.63;;;6.97;51.40
39729;BME280;25402;42.004;23.088;2024-03-07T03:45:07;97220.03;;;7.10;51.27
39729;BME280;25402;42.004;23.088;2024-03-07T03:47:37;97208.66;;;7.08;51.17
39729;BME280;25402;42.004;23.088;2024-03-07T03:50:05;97218.19;;;7.10;51.43
39729;BME280;25402;42.004;23.088;2024-03-07T03:52:33;97204.91;;;7.01;51.35
39729;BME280;25402;42.004;23.088;2024-03-07T03:55:01;97210.50;;;7.07;51.52
39729;BME280;25402;42.004;23.088;2024-03-07T03:57:30;97210.78;;;7.12;51.81
39729;BME280;25402;42.004;23.088;2024-03-07T03:59:57;97201.88;;;7.12;51.47
39729;BME280;25402;42.004;23.088;2024-03-07T04:02:24;97228.06;;;7.26;51.45
39729;BME280;25402;42.004;23.088;2024-03-07T04:04:53;97211.63;;;7.21;51.29
39729;BME280;25402;42.004;23.088;2024-03-07T04:07:20;97225.38;;;7.34;51.34
39729;BME280;25402;42.004;23.088;2024-03-07T04:09:47;97217.81;;;7.29;51.35
39729;BME280;25402;42.004;23.088;2024-03-07T04:12:14;97215.63;;;7.25;51.13
39729;BME280;25402;42.004;23.088;2024-03-07T04:14:42;97217.19;;;7.19;51.12
39729;BME280;25402;42.004;23.088;2024-03-07T04:17:10;97211.63;;;7.21;51.23
39729;BME280;25402;42.004;23.088;2024-03-07T04:19:39;97217.47;;;7.24;51.25
39729;BME280;25402;42.004;23.088;2024-03-07T04:22:08;97208.00;;;7.45;53.47
39729;BME280;25402;42.004;23.088;2024-03-07T04:24:36;97208.66;;;8.40;51.50
39729;BME280;25402;42.004;23.088;2024-03-07T04:27:03;97204.63;;;8.96;51.32
39729;BME280;25402;42.004;23.088;2024-03-07T04:29:31;97224.47;;;9.62;49.20
39729;BME280;25402;42.004;23.088;2024-03-07T04:31:59;97230.75;;;10.13;48.00
39729;BME280;25402;42.004;23.088;2024-03-07T04:34:26;97233.94;;;10.59;46.53
39729;BME280;25402;42.004;23.088;2024-03-07T04:36:56;97233.31;;;11.06;44.79
39729;BME280;25402;42.004;23.088;2024-03-07T04:39:25;97226.72;;;11.43;43.92
39729;BME280;25402;42.004;23.088;2024-03-07T04:41:58;97227.94;;;11.75;42.78
39729;BME280;25402;42.004;23.088;2024-03-07T04:44:26;97219.81;;;12.23;41.66
39729;BME280;25402;42.004;23.088;2024-03-07T04:46:54;97217.16;;;12.49;40.80
39729;BME280;25402;42.004;23.088;2024-03-07T04:49:22;97215.97;;;12.72;40.11
39729;BME280;25402;42.004;23.088;2024-03-07T04:51:50;97212.22;;;12.86;39.46
39729;BME280;25402;42.004;23.088;2024-03-07T04:54:17;97205.94;;;12.79;38.79
39729;BME280;25402;42.004;23.088;2024-03-07T04:56:46;97225.78;;;13.06;38.72
39729;BME280;25402;42.004;23.088;2024-03-07T04:59:14;97216.16;;;13.16;38.37
39729;BME280;25402;42.004;23.088;2024-03-07T05:01:42;97241.22;;;13.32;37.76
39729;BME280;25402;42.004;23.088;2024-03-07T05:04:10;97230.34;;;13.25;37.77
39729;BME280;25402;42.004;23.088;2024-03-07T05:06:38;97244.53;;;13.40;37.46
39729;BME280;25402;42.004;23.088;2024-03-07T05:09:07;97244.75;;;13.39;37.25
39729;BME280;25402;42.004;23.088;2024-03-07T05:11:36;97253.75;;;13.46;37.11
39729;BME280;25402;42.004;23.088;2024-03-07T05:14:04;97258.13;;;13.47;36.87
39729;BME280;25402;42.004;23.088;2024-03-07T05:16:31;97263.56;;;13.60;36.96
39729;BME280;25402;42.004;23.088;2024-03-07T05:18:58;97257.25;;;13.73;36.60
39729;BME280;25402;42.004;23.088;2024-03-07T05:21:26;97262.69;;;13.79;36.54
39729;BME280;25402;42.004;23.088;2024-03-07T05:24:00;97292.34;;;13.94;36.17
39729;BME280;25402;42.004;23.088;2024-03-07T05:26:27;97305.53;;;13.90;36.25
39729;BME280;25402;42.004;23.088;2024-03-07T05:28:55;97313.50;;;13.79;36.62
39729;BME280;25402;42.004;23.088;2024-03-07T05:31:23;97326.06;;;13.20;36.65
39729;BME280;25402;42.004;23.088;2024-03-07T05:33:50;97316.41;;;12.92;37.02
39729;BME280;25402;42.004;23.088;2024-03-07T05:36:17;97325.19;;;12.87;36.95
39729;BME280;25402;42.004;23.088;2024-03-07T05:38:45;97327.25;;;12.92;36.89
39729;BME280;25402;42.004;23.088;2024-03-07T05:41:12;97322.50;;;13.13;36.80
39729;BME280;25402;42.004;23.088;2024-03-07T05:43:39;97309.97;;;13.12;36.17
39729;BME280;25402;42.004;23.088;2024-03-07T05:46:07;97310.19;;;13.04;36.05
39729;BME280;25402;42.004;23.088;2024-03-07T05:48:37;97300.94;;;12.92;34.69
39729;BME280;25402;42.004;23.088;2024-03-07T05:51:04;97300.94;;;12.72;35.42
39729;BME280;25402;42.004;23.088;2024-03-07T05:53:32;97300.34;;;12.23;34.67
39729;BME280;25402;42.004;23.088;2024-03-07T05:56:00;97302.31;;;11.38;35.75
39729;BME280;25402;42.004;23.088;2024-03-07T05:58:27;97300.78;;;11.29;37.22
39729;BME280;25402;42.004;23.088;2024-03-07T06:00:54;97307.69;;;11.32;37.05
39729;BME280;25402;42.004;23.088;2024-03-07T06:03:22;97309.16;;;10.92;36.10
39729;BME280;25402;42.004;23.088;2024-03-07T06:05:52;97278.00;;;10.02;37.39
39729;BME280;25402;42.004;23.088;2024-03-07T06:08:20;97296.63;;;9.24;39.29
39729;BME280;25402;42.004;23.088;2024-03-07T06:10:48;97310.81;;;8.80;40.83
39729;BME280;25402;42.004;23.088;2024-03-07T06:13:16;97292.91;;;8.03;42.40
39729;BME280;25402;42.004;23.088;2024-03-07T06:15:44;97307.13;;;7.09;44.43
39729;BME280;25402;42.004;23.088;2024-03-07T06:18:12;97298.97;;;6.11;46.59
39729;BME280;25402;42.004;23.088;2024-03-07T06:20:40;97290.31;;;5.49;48.84
39729;BME280;25402;42.004;23.088;2024-03-07T06:23:09;97292.06;;;5.07;49.58
39729;BME280;25402;42.004;23.088;2024-03-07T06:25:37;97286.28;;;5.19;50.18
39729;BME280;25402;42.004;23.088;2024-03-07T06:28:13;97288.16;;;5.27;50.40
39729;BME280;25402;42.004;23.088;2024-03-07T06:30:41;97302.69;;;5.42;49.58
39729;BME280;25402;42.004;23.088;2024-03-07T06:33:08;97325.28;;;5.66;49.14
39729;BME280;25402;42.004;23.088;2024-03-07T06:35:36;97333.00;;;6.03;48.21
39729;BME280;25402;42.004;23.088;2024-03-07T06:38:04;97328.56;;;6.28;48.20
39729;BME280;25402;42.004;23.088;2024-03-07T06:40:34;97331.09;;;6.45;48.25
39729;BME280;25402;42.004;23.088;2024-03-07T06:43:02;97319.38;;;6.54;47.86
39729;BME280;25402;42.004;23.088;2024-03-07T06:45:32;97324.44;;;6.74;47.63
39729;BME280;25402;42.004;23.088;2024-03-07T06:47:59;97321.25;;;6.86;47.31
39729;BME280;25402;42.004;23.088;2024-03-07T06:50:26;97301.59;;;6.86;45.98
39729;BME280;25402;42.004;23.088;2024-03-07T06:52:54;97320.22;;;7.04;45.70
39729;BME280;25402;42.004;23.088;2024-03-07T06:55:22;97313.56;;;7.08;45.85
39729;BME280;25402;42.004;23.088;2024-03-07T06:57:51;97316.72;;;7.19;45.99
39729;BME280;25402;42.004;23.088;2024-03-07T07:00:19;97322.25;;;7.26;45.66
39729;BME280;25402;42.004;23.088;2024-03-07T07:02:47;97321.56;;;7.32;45.75
39729;BME280;25402;42.004;23.088;2024-03-07T07:05:14;97328.81;;;7.40;45.59
39729;BME280;25402;42.004;23.088;2024-03-07T07:07:43;97314.19;;;7.34;45.48
39729;BME280;25402;42.004;23.088;2024-03-07T07:10:12;97317.84;;;7.49;45.22
39729;BME280;25402;42.004;23.088;2024-03-07T07:12:44;97330.13;;;7.52;45.33
39729;BME280;25402;42.004;23.088;2024-03-07T07:15:14;97338.19;;;7.52;45.56
39729;BME280;25402;42.004;23.088;2024-03-07T07:17:43;97351.50;;;7.53;45.75
39729;BME280;25402;42.004;23.088;2024-03-07T07:20:12;97360.22;;;7.55;45.51
39729;BME280;25402;42.004;23.088;2024-03-07T07:22:40;97366.97;;;7.51;45.55
39729;BME280;25402;42.004;23.088;2024-03-07T07:25:08;97347.44;;;7.41;45.88
39729;BME280;25402;42.004;23.088;2024-03-07T07:27:40;97368.13;;;7.57;45.64
39729;BME280;25402;42.004;23.088;2024-03-07T07:30:10;97363.25;;;7.44;45.55
39729;BME280;25402;42.004;23.088;2024-03-07T07:32:39;97372.84;;;7.47;45.58
39729;BME280;25402;42.004;23.088;2024-03-07T07:35:07;97364.44;;;7.42;45.42
39729;BME280;25402;42.004;23.088;2024-03-07T07:37:37;97372.34;;;7.43;45.33
39729;BME280;25402;42.004;23.088;2024-03-07T07:40:06;97364.28;;;7.35;45.25
39729;BME280;25402;42.004;23.088;2024-03-07T07:42:35;97345.97;;;7.14;45.73
39729;BME280;25402;42.004;23.088;2024-03-07T07:45:06;97357.44;;;7.08;46.04
39729;BME280;25402;42.004;23.088;2024-03-07T07:47:39;97363.81;;;7.15;46.04
39729;BME280;25402;42.004;23.088;2024-03-07T07:50:07;97367.66;;;7.21;46.12
39729;BME280;25402;42.004;23.088;2024-03-07T07:52:40;97350.69;;;7.12;46.14
39729;BME280;25402;42.004;23.088;2024-03-07T07:55:08;97377.91;;;7.34;46.02
39729;BME280;25402;42.004;23.088;2024-03-07T07:57:41;97371.03;;;7.39;46.16
39729;BME280;25402;42.004;23.088;2024-03-07T08:00:10;97369.16;;;7.48;46.06
39729;BME280;25402;42.004;23.088;2024-03-07T08:02:39;97376.38;;;7.55;45.89
39729;BME280;25402;42.004;23.088;2024-03-07T08:05:07;97378.03;;;7.64;45.89
39729;BME280;25402;42.004;23.088;2024-03-07T08:07:36;97385.56;;;7.77;46.21
39729;BME280;25402;42.004;23.088;2024-03-07T08:10:04;97386.75;;;7.83;46.07
39729;BME280;25402;42.004;23.088;2024-03-07T08:12:32;97393.47;;;7.87;45.87
39729;BME280;25402;42.004;23.088;2024-03-07T08:14:59;97395.63;;;7.91;45.62
39729;BME280;25402;42.004;23.088;2024-03-07T08:17:26;97369.59;;;7.84;45.48
39729;BME280;25402;42.004;23.088;2024-03-07T08:19:55;97395.63;;;7.99;45.37
39729;BME280;25402;42.004;23.088;2024-03-07T08:22:23;97403.84;;;8.06;45.22
39729;BME280;25402;42.004;23.088;2024-03-07T08:24:50;97378.28;;;8.02;45.45
39729;BME280;25402;42.004;23.088;2024-03-07T08:27:17;97396.44;;;8.08;45.30
39729;BME280;25402;42.004;23.088;2024-03-07T08:29:44;97402.47;;;8.10;45.20
39729;BME280;25402;42.004;23.088;2024-03-07T08:32:11;97395.94;;;8.13;44.81
39729;BME280;25402;42.004;23.088;2024-03-07T08:34:38;97382.00;;;8.01;45.14
39729;BME280;25402;42.004;23.088;2024-03-07T08:37:07;97390.38;;;8.06;45.38
39729;BME280;25402;42.004;23.088;2024-03-07T08:39:34;97377.06;;;8.05;45.32
39729;BME280;25402;42.004;23.088;2024-03-07T08:42:01;97397.63;;;8.14;45.15
39729;BME280;25402;42.004;23.088;2024-03-07T08:44:28;97398.13;;;8.17;45.10
39729;BME280;25402;42.004;23.088;2024-03-07T08:46:55;97393.25;;;8.13;45.23
39729;BME280;25402;42.004;23.088;2024-03-07T08:49:22;97377.63;;;7.92;45.21
39729;BME280;25402;42.004;23.088;2024-03-07T08:51:49;97378.28;;;7.94;45.02
39729;BME280;25402;42.004;23.088;2024-03-07T08:54:18;97395.13;;;7.96;45.21
39729;BME280;25402;42.004;23.088;2024-03-07T08:56:45;97386.25;;;7.79;45.37
39729;BME280;25402;42.004;23.088;2024-03-07T08:59:13;97388.72;;;7.89;45.34
39729;BME280;25402;42.004;23.088;2024-03-07T09:01:42;97368.03;;;7.89;45.30
39729;BME280;25402;42.004;23.088;2024-03-07T09:04:10;97380.59;;;8.05;45.19
39729;BME280;25402;42.004;23.088;2024-03-07T09:06:37;97378.59;;;8.15;44.59
39729;BME280;25402;42.004;23.088;2024-03-07T09:09:04;97371.47;;;8.22;44.53
39729;BME280;25402;42.004;23.088;2024-03-07T09:11:36;97370.06;;;8.34;44.36
39729;BME280;25402;42.004;23.088;2024-03-07T09:14:04;97364.50;;;8.36;43.94
39729;BME280;25402;42.004;23.088;2024-03-07T09:16:35;97376.03;;;8.53;43.50
39729;BME280;25402;42.004;23.088;2024-03-07T09:19:02;97374.63;;;8.65;43.06
39729;BME280;25402;42.004;23.088;2024-03-07T09:21:29;97370.19;;;8.72;42.72
39729;BME280;25402;42.004;23.088;2024-03-07T09:23:56;97358.00;;;8.53;41.72
39729;BME280;25402;42.004;23.088;2024-03-07T09:26:23;97376.41;;;8.50;41.78
39729;BME280;25402;42.004;23.088;2024-03-07T09:28:52;97370.47;;;8.54;41.90
39729;BME280;25402;42.004;23.088;2024-03-07T09:31:20;97365.88;;;8.63;41.70
39729;BME280;25402;42.004;23.088;2024-03-07T09:33:47;97354.38;;;8.69;40.72
39729;BME280;25402;42.004;23.088;2024-03-07T09:36:15;97348.56;;;8.80;40.82
39729;BME280;25402;42.004;23.088;2024-03-07T09:38:44;97351.88;;;8.90;40.57
39729;BME280;25402;42.004;23.088;2024-03-07T09:41:11;97344.09;;;8.95;40.12
39729;BME280;25402;42.004;23.088;2024-03-07T09:43:42;97352.41;;;9.09;40.19
39729;BME280;25402;42.004;23.088;2024-03-07T09:46:14;97341.59;;;9.09;39.93
39729;BME280;25402;42.004;23.088;2024-03-07T09:48:44;97353.31;;;9.24;39.81
39729;BME280;25402;42.004;23.088;2024-03-07T09:51:12;97346.44;;;9.36;40.20
39729;BME280;25402;42.004;23.088;2024-03-07T09:53:45;97344.88;;;9.42;40.57
39729;BME280;25402;42.004;23.088;2024-03-07T09:56:14;97341.25;;;9.49;40.29
39729;BME280;25402;42.004;23.088;2024-03-07T09:58:49;97338.94;;;9.61;39.96
39729;BME280;25402;42.004;23.088;2024-03-07T10:01:20;97340.19;;;9.73;39.84
39729;BME280;25402;42.004;23.088;2024-03-07T10:03:47;97343.72;;;9.73;39.18
39729;BME280;25402;42.004;23.088;2024-03-07T10:06:15;97327.69;;;9.87;39.07
39729;BME280;25402;42.004;23.088;2024-03-07T10:08:43;97322.44;;;10.29;45.12
39729;BME280;25402;42.004;23.088;2024-03-07T10:11:10;97326.50;;;10.97;43.87
39729;BME280;25402;42.004;23.088;2024-03-07T10:13:39;97325.41;;;11.62;43.19
39729;BME280;25402;42.004;23.088;2024-03-07T10:16:06;97322.38;;;12.13;41.79
39729;BME280;25402;42.004;23.088;2024-03-07T10:18:41;97319.25;;;12.57;39.81
39729;BME280;25402;42.004;23.088;2024-03-07T10:21:09;97317.03;;;12.94;38.66
39729;BME280;25402;42.004;23.088;2024-03-07T10:23:36;97312.88;;;13.24;37.74
39729;BME280;25402;42.004;23.088;2024-03-07T10:26:06;97306.00;;;13.54;36.64
39729;BME280;25402;42.004;23.088;2024-03-07T10:28:33;97296.56;;;13.70;35.09
39729;BME280;25402;42.004;23.088;2024-03-07T10:31:00;97302.28;;;14.20;34.88
39729;BME280;25402;42.004;23.088;2024-03-07T10:33:29;97295.47;;;14.55;34.51
39729;BME280;25402;42.004;23.088;2024-03-07T10:36:00;97298.03;;;14.82;33.58
39729;BME280;25402;42.004;23.088;2024-03-07T10:38:27;97283.47;;;15.01;33.15
39729;BME280;25402;42.004;23.088;2024-03-07T10:40:55;97273.44;;;15.26;32.11
39729;BME280;25402;42.004;23.088;2024-03-07T10:43:22;97290.81;;;15.75;31.20
39729;BME280;25402;42.004;23.088;2024-03-07T10:45:51;97280.47;;;16.02;29.40
39729;BME280;25402;42.004;23.088;2024-03-07T10:48:25;97282.34;;;16.38;29.62
39729;BME280;25402;42.004;23.088;2024-03-07T10:51:06;97276.22;;;16.73;29.50
39729;BME280;25402;42.004;23.088;2024-03-07T10:53:40;97261.34;;;16.68;26.83
39729;BME280;25402;42.004;23.088;2024-03-07T10:56:21;97260.84;;;16.90;28.00
39729;BME280;25402;42.004;23.088;2024-03-07T10:58:58;97257.91;;;17.03;26.13
39729;BME280;25402;42.004;23.088;2024-03-07T11:01:30;97253.16;;;16.98;26.23
39729;BME280;25402;42.004;23.088;2024-03-07T11:04:00;97242.53;;;17.20;26.31
39729;BME280;25402;42.004;23.088;2024-03-07T11:06:31;97236.81;;;17.33;25.78
39729;BME280;25402;42.004;23.088;2024-03-07T11:09:03;97233.84;;;17.35;25.81
39729;BME280;25402;42.004;23.088;2024-03-07T11:11:37;97237.56;;;17.29;26.16
39729;BME280;25402;42.004;23.088;2024-03-07T11:14:12;97230.53;;;17.33;26.05
39729;BME280;25402;42.004;23.088;2024-03-07T11:16:42;97234.59;;;17.42;25.41
39729;BME280;25402;42.004;23.088;2024-03-07T11:19:34;97226.00;;;17.39;25.42
39729;BME280;25402;42.004;23.088;2024-03-07T11:22:05;97235.38;;;17.19;25.52
39729;BME280;25402;42.004;23.088;2024-03-07T11:24:41;97231.25;;;16.87;25.77
39729;BME280;25402;42.004;23.088;2024-03-07T11:27:10;97226.88;;;16.56;26.05
39729;BME280;25402;42.004;23.088;2024-03-07T11:29:46;97226.56;;;16.34;27.07
39729;BME280;25402;42.004;23.088;2024-03-07T11:32:18;97232.19;;;16.21;27.18
39729;BME280;25402;42.004;23.088;2024-03-07T11:34:47;97235.84;;;15.96;27.84
39729;BME280;25402;42.004;23.088;2024-03-07T11:37:19;97238.22;;;15.68;28.34
39729;BME280;25402;42.004;23.088;2024-03-07T11:39:49;97242.50;;;15.39;28.42
39729;BME280;25402;42.004;23.088;2024-03-07T11:42:25;97230.41;;;15.10;29.62
39729;BME280;25402;42.004;23.088;2024-03-07T11:44:54;97232.00;;;14.93;29.20
39729;BME280;25402;42.004;23.088;2024-03-07T11:47:22;97229.81;;;14.77;29.94
39729;BME280;25402;42.004;23.088;2024-03-07T11:49:52;97228.66;;;14.59;30.25
39729;BME280;25402;42.004;23.088;2024-03-07T11:52:20;97235.88;;;14.41;30.92
39729;BME280;25402;42.004;23.088;2024-03-07T11:54:47;97225.25;;;14.26;31.61
39729;BME280;25402;42.004;23.088;2024-03-07T11:57:18;97232.00;;;14.17;32.02
39729;BME280;25402;42.004;23.088;2024-03-07T11:59:52;97224.72;;;14.11;32.01
39729;BME280;25402;42.004;23.088;2024-03-07T12:02:19;97229.34;;;14.04;32.10
39729;BME280;25402;42.004;23.088;2024-03-07T12:04:48;97211.00;;;13.86;31.88
39729;BME280;25402;42.004;23.088;2024-03-07T12:07:15;97229.78;;;14.01;32.11
39729;BME280;25402;42.004;23.088;2024-03-07T12:09:45;97215.94;;;14.09;32.88
39729;BME280;25402;42.004;23.088;2024-03-07T12:12:16;97212.16;;;14.10;32.68
39729;BME280;25402;42.004;23.088;2024-03-07T12:14:44;97211.97;;;14.05;32.65
39729;BME280;25402;42.004;23.088;2024-03-07T12:17:11;97201.50;;;14.02;32.57
39729;BME280;25402;42.004;23.088;2024-03-07T12:19:38;97206.84;;;13.77;32.03
39729;BME280;25402;42.004;23.088;2024-03-07T12:22:08;97202.69;;;13.74;31.83
39729;BME280;25402;42.004;23.088;2024-03-07T12:24:38;97197.72;;;13.45;31.39
39729;BME280;25402;42.004;23.088;2024-03-07T12:27:11;97196.28;;;13.36;30.39
39729;BME280;25402;42.004;23.088;2024-03-07T12:29:38;97199.00;;;13.23;30.09
39729;BME280;25402;42.004;23.088;2024-03-07T12:32:06;97185.91;;;12.87;29.68
39729;BME280;25402;42.004;23.088;2024-03-07T12:34:36;97190.69;;;12.91;29.93
39729;BME280;25402;42.004;23.088;2024-03-07T12:37:06;97181.72;;;12.77;29.54
39729;BME280;25402;42.004;23.088;2024-03-07T12:39:35;97186.53;;;12.82;29.41
39729;BME280;25402;42.004;23.088;2024-03-07T12:42:14;97179.41;;;12.81;29.86
39729;BME280;25402;42.004;23.088;2024-03-07T12:44:42;97170.44;;;13.00;29.56
39729;BME280;25402;42.004;23.088;2024-03-07T12:47:11;97153.31;;;13.00;29.30
39729;BME280;25402;42.004;23.088;2024-03-07T12:49:42;97155.16;;;12.33;29.23
39729;BME280;25402;42.004;23.088;2024-03-07T12:52:10;97157.25;;;11.70;29.65
39729;BME280;25402;42.004;23.088;2024-03-07T12:54:38;97153.47;;;11.65;30.17
39729;BME280;25402;42.004;23.088;2024-03-07T12:57:06;97154.31;;;12.26;35.18
39729;BME280;25402;42.004;23.088;2024-03-07T12:59:37;97161.66;;;12.92;35.88
39729;BME280;25402;42.004;23.088;2024-03-07T13:02:07;97137.38;;;13.30;35.83
39729;BME280;25402;42.004;23.088;2024-03-07T13:04:34;97144.94;;;13.79;35.09